sensor_id;sensor_type;location;lat;lon;timestamp;temperature;humidity
10883;DHT22;5494;51.796;10.952;2023-01-31T00:01:58;3.90;99.90
10883;DHT22;5494;51.796;10.952;2023-01-31T00:04:26;4.00;99.90
10883;DHT22;5494;51.796;10.952;2023-01-31T00:06:54;4.00;99.90
10883;DHT22;5494;51.796;10.952;2023-01-31T00:09:22;4.00;99.90
10883;DHT22;5494;51.796;10.952;2023-01-31T00:11:51;4.00;99.90
10883;DHT22;5494;51.796;10.952;2023-01-31T00:14:19;4.00;99.90
10883;DHT22;5494;51.796;10.952;2023-01-31T00:16:48;4.00;99.90
10883;DHT22;5494;51.796;10.952;2023-01-31T00:19:15;4.10;99.90
10883;DHT22;5494;51.796;10.952;2023-01-31T00:21:44;4.10;99.90
10883;DHT22;5494;51.796;10.952;2023-01-31T00:24:12;4.10;99.90
10883;DHT22;5494;51.796;10.952;2023-01-31T00:26:40;4.10;99.90
10883;DHT22;5494;51.796;10.952;2023-01-31T00:29:10;4.00;99.90
10883;DHT22;5494;51.796;10.952;2023-01-31T00:31:38;4.00;99.90
10883;DHT22;5494;51.796;10.952;2023-01-31T00:34:06;4.00;99.90
10883;DHT22;5494;51.796;10.952;2023-01-31T00:36:34;4.00;99.90
10883;DHT22;5494;51.796;10.952;2023-01-31T00:39:04;4.00;99.90
10883;DHT22;5494;51.796;10.952;2023-01-31T00:41:36;4.10;99.90
10883;DHT22;5494;51.796;10.952;2023-01-31T00:44:05;4.10;99.90
10883;DHT22;5494;51.796;10.952;2023-01-31T00:46:35;4.00;99.90
10883;DHT22;5494;51.796;10.952;2023-01-31T00:49:04;4.00;99.90
10883;DHT22;5494;51.796;10.952;2023-01-31T00:51:32;3.90;99.90
10883;DHT22;5494;51.796;10.952;2023-01-31T00:54:01;3.90;99.90
10883;DHT22;5494;51.796;10.952;2023-01-31T00:56:29;3.80;99.90
10883;DHT22;5494;51.796;10.952;2023-01-31T00:58:57;3.80;99.90
10883;DHT22;5494;51.796;10.952;2023-01-31T01:01:27;3.80;99.90
10883;DHT22;5494;51.796;10.952;2023-01-31T01:03:57;3.80;99.90
10883;DHT22;5494;51.796;10.952;2023-01-31T01:06:26;3.80;99.90
10883;DHT22;5494;51.796;10.952;2023-01-31T01:08:55;3.70;99.90
10883;DHT22;5494;51.796;10.952;2023-01-31T01:11:27;3.70;99.90
10883;DHT22;5494;51.796;10.952;2023-01-31T01:13:58;3.70;99.90
10883;DHT22;5494;51.796;10.952;2023-01-31T01:16:31;3.80;99.90
10883;DHT22;5494;51.796;10.952;2023-01-31T01:19:04;3.80;99.90
10883;DHT22;5494;51.796;10.952;2023-01-31T01:21:34;3.70;99.90
10883;DHT22;5494;51.796;10.952;2023-01-31T01:24:06;3.70;99.90
10883;DHT22;5494;51.796;10.952;2023-01-31T01:26:38;3.80;99.90
10883;DHT22;5494;51.796;10.952;2023-01-31T01:29:06;3.80;99.90
10883;DHT22;5494;51.796;10.952;2023-01-31T01:31:34;3.80;99.90
10883;DHT22;5494;51.796;10.952;2023-01-31T01:34:07;3.80;99.90
10883;DHT22;5494;51.796;10.952;2023-01-31T01:36:38;3.80;99.90
10883;DHT22;5494;51.796;10.952;2023-01-31T01:39:08;3.90;99.90
10883;DHT22;5494;51.796;10.952;2023-01-31T01:41:40;3.80;99.90
10883;DHT22;5494;51.796;10.952;2023-01-31T01:44:42;3.80;99.90
10883;DHT22;5494;51.796;10.952;2023-01-31T01:47:15;3.90;99.90
10883;DHT22;5494;51.796;10.952;2023-01-31T01:49:52;3.90;99.90
10883;DHT22;5494;51.796;10.952;2023-01-31T01:52:25;3.90;99.90
10883;DHT22;5494;51.796;10.952;2023-01-31T01:54:59;3.90;99.90
10883;DHT22;5494;51.796;10.952;2023-01-31T01:57:33;4.00;99.90
10883;DHT22;5494;51.796;10.952;2023-01-31T02:00:09;4.00;99.90
10883;DHT22;5494;51.796;10.952;2023-01-31T02:02:41;4.10;99.90
10883;DHT22;5494;51.796;10.952;2023-01-31T02:14:10;4.30;99.90
10883;DHT22;5494;51.796;10.952;2023-01-31T02:16:38;4.30;99.90
10883;DHT22;5494;51.796;10.952;2023-01-31T02:19:13;4.40;99.90
10883;DHT22;5494;51.796;10.952;2023-01-31T02:22:09;4.40;99.90
10883;DHT22;5494;51.796;10.952;2023-01-31T02:25:04;4.40;99.90
10883;DHT22;5494;51.796;10.952;2023-01-31T02:28:17;4.40;99.90
10883;DHT22;5494;51.796;10.952;2023-01-31T02:34:46;4.30;99.90
10883;DHT22;5494;51.796;10.952;2023-01-31T02:37:27;4.30;99.90
10883;DHT22;5494;51.796;10.952;2023-01-31T02:40:07;4.30;99.90
10883;DHT22;5494;51.796;10.952;2023-01-31T02:42:48;4.20;99.90
10883;DHT22;5494;51.796;10.952;2023-01-31T02:45:28;4.10;99.90
10883;DHT22;5494;51.796;10.952;2023-01-31T02:48:12;4.00;99.90
10883;DHT22;5494;51.796;10.952;2023-01-31T02:50:59;3.80;99.90
10883;DHT22;5494;51.796;10.952;2023-01-31T02:53:34;3.70;99.90
10883;DHT22;5494;51.796;10.952;2023-01-31T02:56:07;3.70;99.90
10883;DHT22;5494;51.796;10.952;2023-01-31T02:58:48;3.70;99.90
10883;DHT22;5494;51.796;10.952;2023-01-31T03:01:25;3.70;99.90
10883;DHT22;5494;51.796;10.952;2023-01-31T03:03:57;3.70;99.90
10883;DHT22;5494;51.796;10.952;2023-01-31T03:06:51;3.70;99.90
10883;DHT22;5494;51.796;10.952;2023-01-31T03:09:39;3.70;99.90
10883;DHT22;5494;51.796;10.952;2023-01-31T03:12:21;3.70;99.90
10883;DHT22;5494;51.796;10.952;2023-01-31T03:15:08;3.70;99.90
10883;DHT22;5494;51.796;10.952;2023-01-31T03:17:54;3.70;99.90
10883;DHT22;5494;51.796;10.952;2023-01-31T03:20:32;3.60;99.90
10883;DHT22;5494;51.796;10.952;2023-01-31T03:23:12;3.70;99.90
10883;DHT22;5494;51.796;10.952;2023-01-31T03:25:45;3.60;99.90
10883;DHT22;5494;51.796;10.952;2023-01-31T03:28:21;3.70;99.90
10883;DHT22;5494;51.796;10.952;2023-01-31T03:31:00;3.70;99.90
10883;DHT22;5494;51.796;10.952;2023-01-31T03:33:35;3.60;99.90
10883;DHT22;5494;51.796;10.952;2023-01-31T03:36:15;3.50;99.90
10883;DHT22;5494;51.796;10.952;2023-01-31T03:39:04;3.50;99.90
10883;DHT22;5494;51.796;10.952;2023-01-31T03:41:45;3.60;99.90
10883;DHT22;5494;51.796;10.952;2023-01-31T03:44:27;3.60;99.90
10883;DHT22;5494;51.796;10.952;2023-01-31T03:47:04;3.60;99.90
10883;DHT22;5494;51.796;10.952;2023-01-31T03:49:39;3.70;99.90
10883;DHT22;5494;51.796;10.952;2023-01-31T03:52:11;3.60;99.90
10883;DHT22;5494;51.796;10.952;2023-01-31T03:54:51;3.90;99.90
10883;DHT22;5494;51.796;10.952;2023-01-31T03:57:29;3.90;99.90
10883;DHT22;5494;51.796;10.952;2023-01-31T04:00:02;3.90;99.90
10883;DHT22;5494;51.796;10.952;2023-01-31T04:02:41;3.90;99.90
10883;DHT22;5494;51.796;10.952;2023-01-31T04:05:13;4.00;99.90
10883;DHT22;5494;51.796;10.952;2023-01-31T04:07:48;4.00;99.90
10883;DHT22;5494;51.796;10.952;2023-01-31T04:10:24;4.10;99.90
10883;DHT22;5494;51.796;10.952;2023-01-31T04:12:53;4.20;99.90
10883;DHT22;5494;51.796;10.952;2023-01-31T04:15:21;4.30;99.90
10883;DHT22;5494;51.796;10.952;2023-01-31T04:17:49;4.30;99.90
10883;DHT22;5494;51.796;10.952;2023-01-31T04:20:17;4.30;99.90
10883;DHT22;5494;51.796;10.952;2023-01-31T04:22:45;4.20;99.90
10883;DHT22;5494;51.796;10.952;2023-01-31T04:25:13;4.20;99.90
10883;DHT22;5494;51.796;10.952;2023-01-31T04:27:42;4.20;99.90
10883;DHT22;5494;51.796;10.952;2023-01-31T04:30:11;4.30;99.90
10883;DHT22;5494;51.796;10.952;2023-01-31T04:32:40;4.30;99.90
10883;DHT22;5494;51.796;10.952;2023-01-31T04:35:08;4.40;99.90
10883;DHT22;5494;51.796;10.952;2023-01-31T04:37:36;4.40;99.90
10883;DHT22;5494;51.796;10.952;2023-01-31T04:40:05;4.40;99.90
10883;DHT22;5494;51.796;10.952;2023-01-31T04:42:34;4.40;99.90
10883;DHT22;5494;51.796;10.952;2023-01-31T04:45:04;4.40;99.90
10883;DHT22;5494;51.796;10.952;2023-01-31T04:47:32;4.40;99.90
10883;DHT22;5494;51.796;10.952;2023-01-31T04:50:00;4.40;99.90
10883;DHT22;5494;51.796;10.952;2023-01-31T04:52:28;4.50;99.90
10883;DHT22;5494;51.796;10.952;2023-01-31T04:54:56;4.40;99.90
10883;DHT22;5494;51.796;10.952;2023-01-31T04:57:24;4.40;99.90
10883;DHT22;5494;51.796;10.952;2023-01-31T04:59:52;4.40;99.90
10883;DHT22;5494;51.796;10.952;2023-01-31T05:02:21;4.40;99.90
10883;DHT22;5494;51.796;10.952;2023-01-31T05:04:49;4.40;99.90
10883;DHT22;5494;51.796;10.952;2023-01-31T05:07:17;4.40;99.90
10883;DHT22;5494;51.796;10.952;2023-01-31T05:09:45;4.40;99.90
10883;DHT22;5494;51.796;10.952;2023-01-31T05:12:13;4.30;99.90
10883;DHT22;5494;51.796;10.952;2023-01-31T05:14:41;4.30;99.90
10883;DHT22;5494;51.796;10.952;2023-01-31T05:17:09;4.30;99.90
10883;DHT22;5494;51.796;10.952;2023-01-31T05:19:38;4.30;99.90
10883;DHT22;5494;51.796;10.952;2023-01-31T05:22:07;4.30;99.90
10883;DHT22;5494;51.796;10.952;2023-01-31T05:24:35;4.30;99.90
10883;DHT22;5494;51.796;10.952;2023-01-31T05:27:03;4.20;99.90
10883;DHT22;5494;51.796;10.952;2023-01-31T05:29:32;4.10;99.90
10883;DHT22;5494;51.796;10.952;2023-01-31T05:32:01;4.10;99.90
10883;DHT22;5494;51.796;10.952;2023-01-31T05:34:31;4.10;99.90
10883;DHT22;5494;51.796;10.952;2023-01-31T05:37:01;4.00;99.90
10883;DHT22;5494;51.796;10.952;2023-01-31T05:39:30;4.00;99.90
10883;DHT22;5494;51.796;10.952;2023-01-31T05:41:58;4.00;99.90
10883;DHT22;5494;51.796;10.952;2023-01-31T05:44:26;3.90;99.90
10883;DHT22;5494;51.796;10.952;2023-01-31T05:46:54;3.90;99.90
10883;DHT22;5494;51.796;10.952;2023-01-31T05:49:22;3.80;99.90
10883;DHT22;5494;51.796;10.952;2023-01-31T05:51:50;3.80;99.90
10883;DHT22;5494;51.796;10.952;2023-01-31T05:54:19;3.80;99.90
10883;DHT22;5494;51.796;10.952;2023-01-31T05:56:47;3.80;99.90
10883;DHT22;5494;51.796;10.952;2023-01-31T05:59:15;3.80;99.90
10883;DHT22;5494;51.796;10.952;2023-01-31T06:01:43;3.80;99.90
10883;DHT22;5494;51.796;10.952;2023-01-31T06:04:11;3.80;99.90
10883;DHT22;5494;51.796;10.952;2023-01-31T06:06:39;3.80;99.90
10883;DHT22;5494;51.796;10.952;2023-01-31T06:09:07;3.80;99.90
10883;DHT22;5494;51.796;10.952;2023-01-31T06:11:36;3.80;99.90
10883;DHT22;5494;51.796;10.952;2023-01-31T06:14:04;3.90;99.90
10883;DHT22;5494;51.796;10.952;2023-01-31T06:16:32;3.90;99.90
10883;DHT22;5494;51.796;10.952;2023-01-31T06:19:00;3.90;99.90
10883;DHT22;5494;51.796;10.952;2023-01-31T06:21:28;3.90;99.90
10883;DHT22;5494;51.796;10.952;2023-01-31T06:23:56;3.90;99.90
10883;DHT22;5494;51.796;10.952;2023-01-31T06:26:25;4.00;99.90
10883;DHT22;5494;51.796;10.952;2023-01-31T06:28:57;3.90;99.90
10883;DHT22;5494;51.796;10.952;2023-01-31T06:31:25;3.90;99.90
10883;DHT22;5494;51.796;10.952;2023-01-31T06:33:53;3.80;99.90
10883;DHT22;5494;51.796;10.952;2023-01-31T06:36:21;3.90;99.90
10883;DHT22;5494;51.796;10.952;2023-01-31T06:38:50;3.90;99.90
10883;DHT22;5494;51.796;10.952;2023-01-31T06:41:18;3.90;99.90
10883;DHT22;5494;51.796;10.952;2023-01-31T06:43:46;4.00;99.90
10883;DHT22;5494;51.796;10.952;2023-01-31T06:46:16;4.10;99.90
10883;DHT22;5494;51.796;10.952;2023-01-31T06:48:44;4.10;99.90
10883;DHT22;5494;51.796;10.952;2023-01-31T06:51:14;4.20;99.90
10883;DHT22;5494;51.796;10.952;2023-01-31T06:53:42;4.20;99.90
10883;DHT22;5494;51.796;10.952;2023-01-31T06:56:10;4.30;99.90
10883;DHT22;5494;51.796;10.952;2023-01-31T06:58:38;4.30;99.90
10883;DHT22;5494;51.796;10.952;2023-01-31T07:01:08;4.30;99.90
10883;DHT22;5494;51.796;10.952;2023-01-31T07:03:39;4.20;99.90
10883;DHT22;5494;51.796;10.952;2023-01-31T07:06:08;4.30;99.90
10883;DHT22;5494;51.796;10.952;2023-01-31T07:08:37;4.30;99.90
10883;DHT22;5494;51.796;10.952;2023-01-31T07:11:05;4.40;99.90
10883;DHT22;5494;51.796;10.952;2023-01-31T07:13:33;4.40;99.90
10883;DHT22;5494;51.796;10.952;2023-01-31T07:16:01;4.50;99.90
10883;DHT22;5494;51.796;10.952;2023-01-31T07:18:29;4.50;99.90
10883;DHT22;5494;51.796;10.952;2023-01-31T07:20:59;4.60;99.90
10883;DHT22;5494;51.796;10.952;2023-01-31T07:23:27;4.60;99.90
10883;DHT22;5494;51.796;10.952;2023-01-31T07:25:55;4.60;99.90
10883;DHT22;5494;51.796;10.952;2023-01-31T07:28:23;4.60;99.90
10883;DHT22;5494;51.796;10.952;2023-01-31T07:30:51;4.70;99.90
10883;DHT22;5494;51.796;10.952;2023-01-31T07:33:19;4.70;99.90
10883;DHT22;5494;51.796;10.952;2023-01-31T07:35:47;4.70;99.90
10883;DHT22;5494;51.796;10.952;2023-01-31T07:38:16;4.70;99.90
10883;DHT22;5494;51.796;10.952;2023-01-31T07:40:44;4.80;99.90
10883;DHT22;5494;51.796;10.952;2023-01-31T07:43:12;4.80;99.90
10883;DHT22;5494;51.796;10.952;2023-01-31T07:45:40;4.80;99.90
10883;DHT22;5494;51.796;10.952;2023-01-31T07:48:09;4.80;99.90
10883;DHT22;5494;51.796;10.952;2023-01-31T07:50:37;4.90;99.90
10883;DHT22;5494;51.796;10.952;2023-01-31T07:53:05;4.90;99.90
10883;DHT22;5494;51.796;10.952;2023-01-31T07:55:34;5.00;99.90
10883;DHT22;5494;51.796;10.952;2023-01-31T07:58:02;5.10;99.90
10883;DHT22;5494;51.796;10.952;2023-01-31T08:00:30;5.10;99.90
10883;DHT22;5494;51.796;10.952;2023-01-31T08:03:23;5.20;99.90
10883;DHT22;5494;51.796;10.952;2023-01-31T08:06:00;5.30;99.90
10883;DHT22;5494;51.796;10.952;2023-01-31T08:08:30;5.40;99.90
10883;DHT22;5494;51.796;10.952;2023-01-31T08:11:02;5.40;99.90
10883;DHT22;5494;51.796;10.952;2023-01-31T08:13:31;5.40;99.90
10883;DHT22;5494;51.796;10.952;2023-01-31T08:16:00;5.40;99.90
10883;DHT22;5494;51.796;10.952;2023-01-31T08:18:29;5.40;99.90
10883;DHT22;5494;51.796;10.952;2023-01-31T08:20:57;5.40;99.90
10883;DHT22;5494;51.796;10.952;2023-01-31T08:23:26;5.40;99.90
10883;DHT22;5494;51.796;10.952;2023-01-31T08:26:02;5.40;99.90
10883;DHT22;5494;51.796;10.952;2023-01-31T08:28:32;5.40;99.90
10883;DHT22;5494;51.796;10.952;2023-01-31T08:31:00;5.50;99.90
10883;DHT22;5494;51.796;10.952;2023-01-31T08:33:36;5.60;99.90
10883;DHT22;5494;51.796;10.952;2023-01-31T08:36:08;5.70;99.90
10883;DHT22;5494;51.796;10.952;2023-01-31T08:38:37;5.70;99.90
10883;DHT22;5494;51.796;10.952;2023-01-31T08:41:07;5.70;99.90
10883;DHT22;5494;51.796;10.952;2023-01-31T08:43:35;5.70;99.90
10883;DHT22;5494;51.796;10.952;2023-01-31T08:46:20;5.70;99.90
10883;DHT22;5494;51.796;10.952;2023-01-31T08:48:52;5.80;99.90
10883;DHT22;5494;51.796;10.952;2023-01-31T08:51:21;5.90;99.90
10883;DHT22;5494;51.796;10.952;2023-01-31T08:53:49;6.10;99.90
10883;DHT22;5494;51.796;10.952;2023-01-31T08:56:19;6.40;99.90
10883;DHT22;5494;51.796;10.952;2023-01-31T08:58:52;6.50;99.90
10883;DHT22;5494;51.796;10.952;2023-01-31T09:01:21;6.70;99.90
10883;DHT22;5494;51.796;10.952;2023-01-31T09:03:50;6.80;99.90
10883;DHT22;5494;51.796;10.952;2023-01-31T09:06:23;6.70;99.90
10883;DHT22;5494;51.796;10.952;2023-01-31T09:08:54;6.60;99.90
10883;DHT22;5494;51.796;10.952;2023-01-31T09:11:26;6.50;99.90
10883;DHT22;5494;51.796;10.952;2023-01-31T09:13:56;6.30;99.90
10883;DHT22;5494;51.796;10.952;2023-01-31T09:16:24;6.30;99.90
10883;DHT22;5494;51.796;10.952;2023-01-31T09:18:52;6.30;99.90
10883;DHT22;5494;51.796;10.952;2023-01-31T09:21:22;6.30;99.90
10883;DHT22;5494;51.796;10.952;2023-01-31T09:23:54;6.20;99.90
10883;DHT22;5494;51.796;10.952;2023-01-31T09:26:25;6.20;99.90
10883;DHT22;5494;51.796;10.952;2023-01-31T09:28:53;6.10;99.90
10883;DHT22;5494;51.796;10.952;2023-01-31T09:31:21;6.10;99.90
10883;DHT22;5494;51.796;10.952;2023-01-31T09:33:49;6.10;99.90
10883;DHT22;5494;51.796;10.952;2023-01-31T09:36:20;6.10;99.90
10883;DHT22;5494;51.796;10.952;2023-01-31T09:38:53;6.10;99.90
10883;DHT22;5494;51.796;10.952;2023-01-31T09:41:27;6.10;99.90
10883;DHT22;5494;51.796;10.952;2023-01-31T09:44:03;6.10;99.90
10883;DHT22;5494;51.796;10.952;2023-01-31T09:46:37;6.10;99.90
10883;DHT22;5494;51.796;10.952;2023-01-31T09:49:14;6.10;99.90
10883;DHT22;5494;51.796;10.952;2023-01-31T09:51:46;6.20;99.90
10883;DHT22;5494;51.796;10.952;2023-01-31T09:54:25;6.30;99.90
10883;DHT22;5494;51.796;10.952;2023-01-31T09:57:04;6.30;99.90
10883;DHT22;5494;51.796;10.952;2023-01-31T09:59:47;6.50;99.90
10883;DHT22;5494;51.796;10.952;2023-01-31T10:02:37;6.40;99.90
10883;DHT22;5494;51.796;10.952;2023-01-31T10:05:22;6.40;99.90
10883;DHT22;5494;51.796;10.952;2023-01-31T10:08:03;6.40;99.90
10883;DHT22;5494;51.796;10.952;2023-01-31T10:10:44;5.80;99.90
10883;DHT22;5494;51.796;10.952;2023-01-31T10:13:21;6.50;99.90
10883;DHT22;5494;51.796;10.952;2023-01-31T10:15:59;6.50;99.90
10883;DHT22;5494;51.796;10.952;2023-01-31T10:18:34;6.50;99.90
10883;DHT22;5494;51.796;10.952;2023-01-31T10:21:11;6.50;99.90
10883;DHT22;5494;51.796;10.952;2023-01-31T10:23:45;6.50;99.90
10883;DHT22;5494;51.796;10.952;2023-01-31T10:26:21;6.50;99.90
10883;DHT22;5494;51.796;10.952;2023-01-31T10:28:59;6.80;99.90
10883;DHT22;5494;51.796;10.952;2023-01-31T10:31:34;6.80;99.90
10883;DHT22;5494;51.796;10.952;2023-01-31T10:34:13;6.90;99.90
10883;DHT22;5494;51.796;10.952;2023-01-31T10:36:48;6.90;99.90
10883;DHT22;5494;51.796;10.952;2023-01-31T10:39:22;6.90;99.90
10883;DHT22;5494;51.796;10.952;2023-01-31T10:42:06;7.00;99.90
10883;DHT22;5494;51.796;10.952;2023-01-31T10:44:50;7.20;99.90
10883;DHT22;5494;51.796;10.952;2023-01-31T10:47:26;7.10;99.90
10883;DHT22;5494;51.796;10.952;2023-01-31T10:49:58;7.20;99.90
10883;DHT22;5494;51.796;10.952;2023-01-31T10:52:36;7.20;99.90
10883;DHT22;5494;51.796;10.952;2023-01-31T10:55:35;7.10;99.90
10883;DHT22;5494;51.796;10.952;2023-01-31T10:58:13;7.20;99.90
10883;DHT22;5494;51.796;10.952;2023-01-31T11:00:45;7.20;99.90
10883;DHT22;5494;51.796;10.952;2023-01-31T11:03:14;7.20;99.90
10883;DHT22;5494;51.796;10.952;2023-01-31T11:05:47;7.10;99.90
10883;DHT22;5494;51.796;10.952;2023-01-31T11:08:24;6.90;99.90
10883;DHT22;5494;51.796;10.952;2023-01-31T11:10:58;6.80;99.90
10883;DHT22;5494;51.796;10.952;2023-01-31T11:13:32;6.80;99.90
10883;DHT22;5494;51.796;10.952;2023-01-31T11:16:03;6.70;99.90
10883;DHT22;5494;51.796;10.952;2023-01-31T11:18:37;6.60;99.90
10883;DHT22;5494;51.796;10.952;2023-01-31T11:21:18;6.50;99.90
10883;DHT22;5494;51.796;10.952;2023-01-31T11:23:49;6.30;99.90
10883;DHT22;5494;51.796;10.952;2023-01-31T11:26:26;6.30;99.90
10883;DHT22;5494;51.796;10.952;2023-01-31T11:28:56;6.30;99.90
10883;DHT22;5494;51.796;10.952;2023-01-31T11:31:29;6.30;99.90
10883;DHT22;5494;51.796;10.952;2023-01-31T11:34:01;6.20;99.90
10883;DHT22;5494;51.796;10.952;2023-01-31T11:36:33;6.30;99.90
10883;DHT22;5494;51.796;10.952;2023-01-31T11:39:26;6.30;99.90
10883;DHT22;5494;51.796;10.952;2023-01-31T11:42:02;6.50;99.90
10883;DHT22;5494;51.796;10.952;2023-01-31T11:44:32;6.60;99.90
10883;DHT22;5494;51.796;10.952;2023-01-31T11:47:03;6.80;99.90
10883;DHT22;5494;51.796;10.952;2023-01-31T11:49:40;6.90;99.90
10883;DHT22;5494;51.796;10.952;2023-01-31T11:52:15;7.00;99.90
10883;DHT22;5494;51.796;10.952;2023-01-31T11:54:47;7.10;99.90
10883;DHT22;5494;51.796;10.952;2023-01-31T11:57:22;7.10;99.90
10883;DHT22;5494;51.796;10.952;2023-01-31T11:59:54;6.90;99.90
10883;DHT22;5494;51.796;10.952;2023-01-31T12:02:31;6.80;99.90
10883;DHT22;5494;51.796;10.952;2023-01-31T12:05:14;6.70;99.90
10883;DHT22;5494;51.796;10.952;2023-01-31T12:07:45;6.60;99.90
10883;DHT22;5494;51.796;10.952;2023-01-31T12:10:32;6.60;99.90
10883;DHT22;5494;51.796;10.952;2023-01-31T12:13:12;6.60;99.90
10883;DHT22;5494;51.796;10.952;2023-01-31T12:15:51;6.70;99.90
10883;DHT22;5494;51.796;10.952;2023-01-31T12:18:54;6.80;99.90
10883;DHT22;5494;51.796;10.952;2023-01-31T12:21:50;6.90;99.90
10883;DHT22;5494;51.796;10.952;2023-01-31T12:24:33;7.00;99.90
10883;DHT22;5494;51.796;10.952;2023-01-31T12:27:16;6.90;99.90
10883;DHT22;5494;51.796;10.952;2023-01-31T12:30:04;6.80;99.90
10883;DHT22;5494;51.796;10.952;2023-01-31T12:32:51;6.80;99.90
10883;DHT22;5494;51.796;10.952;2023-01-31T12:36:03;6.60;99.90
10883;DHT22;5494;51.796;10.952;2023-01-31T12:39:01;6.60;99.90
10883;DHT22;5494;51.796;10.952;2023-01-31T12:41:49;6.60;99.90
10883;DHT22;5494;51.796;10.952;2023-01-31T12:44:38;6.70;99.90
10883;DHT22;5494;51.796;10.952;2023-01-31T12:47:32;6.60;99.90
10883;DHT22;5494;51.796;10.952;2023-01-31T12:50:29;6.70;99.90
10883;DHT22;5494;51.796;10.952;2023-01-31T12:53:28;6.80;99.90
10883;DHT22;5494;51.796;10.952;2023-01-31T12:56:17;6.60;99.90
10883;DHT22;5494;51.796;10.952;2023-01-31T12:59:04;6.60;99.90
10883;DHT22;5494;51.796;10.952;2023-01-31T13:01:48;6.50;99.90
10883;DHT22;5494;51.796;10.952;2023-01-31T13:04:30;6.50;99.90
10883;DHT22;5494;51.796;10.952;2023-01-31T13:07:06;6.50;99.90
10883;DHT22;5494;51.796;10.952;2023-01-31T13:09:47;6.60;99.90
10883;DHT22;5494;51.796;10.952;2023-01-31T13:12:20;6.50;99.90
10883;DHT22;5494;51.796;10.952;2023-01-31T13:14:56;6.60;99.90
10883;DHT22;5494;51.796;10.952;2023-01-31T13:17:32;6.60;99.90
10883;DHT22;5494;51.796;10.952;2023-01-31T13:20:18;6.70;99.90
10883;DHT22;5494;51.796;10.952;2023-01-31T13:22:55;6.60;99.90
10883;DHT22;5494;51.796;10.952;2023-01-31T13:25:37;6.60;99.90
10883;DHT22;5494;51.796;10.952;2023-01-31T13:28:14;6.50;99.90
10883;DHT22;5494;51.796;10.952;2023-01-31T13:30:47;6.40;99.90
10883;DHT22;5494;51.796;10.952;2023-01-31T13:33:28;6.40;99.90
10883;DHT22;5494;51.796;10.952;2023-01-31T13:36:07;6.40;99.90
10883;DHT22;5494;51.796;10.952;2023-01-31T13:38:46;6.30;99.90
10883;DHT22;5494;51.796;10.952;2023-01-31T13:41:24;6.30;99.90
10883;DHT22;5494;51.796;10.952;2023-01-31T13:43:55;6.30;99.90
10883;DHT22;5494;51.796;10.952;2023-01-31T13:46:30;6.20;99.90
10883;DHT22;5494;51.796;10.952;2023-01-31T13:49:05;6.20;99.90
10883;DHT22;5494;51.796;10.952;2023-01-31T13:51:39;6.10;99.90
10883;DHT22;5494;51.796;10.952;2023-01-31T13:54:15;6.20;99.90
10883;DHT22;5494;51.796;10.952;2023-01-31T13:56:52;6.10;99.90
10883;DHT22;5494;51.796;10.952;2023-01-31T13:59:23;6.10;99.90
10883;DHT22;5494;51.796;10.952;2023-01-31T14:01:55;6.10;99.90
10883;DHT22;5494;51.796;10.952;2023-01-31T14:04:29;5.20;99.90
10883;DHT22;5494;51.796;10.952;2023-01-31T14:07:21;6.00;99.90
10883;DHT22;5494;51.796;10.952;2023-01-31T14:10:25;6.00;99.90
10883;DHT22;5494;51.796;10.952;2023-01-31T14:13:25;6.00;99.90
10883;DHT22;5494;51.796;10.952;2023-01-31T14:16:35;6.00;99.90
10883;DHT22;5494;51.796;10.952;2023-01-31T14:22:29;6.00;99.90
10883;DHT22;5494;51.796;10.952;2023-01-31T14:25:03;5.90;99.90
10883;DHT22;5494;51.796;10.952;2023-01-31T14:27:39;5.90;99.90
10883;DHT22;5494;51.796;10.952;2023-01-31T14:30:26;5.90;99.90
10883;DHT22;5494;51.796;10.952;2023-01-31T14:33:16;5.80;99.90
10883;DHT22;5494;51.796;10.952;2023-01-31T14:39:37;5.70;99.90
10883;DHT22;5494;51.796;10.952;2023-01-31T14:42:47;5.60;99.90
10883;DHT22;5494;51.796;10.952;2023-01-31T14:48:53;5.40;99.90
10883;DHT22;5494;51.796;10.952;2023-01-31T14:51:51;5.30;99.90
10883;DHT22;5494;51.796;10.952;2023-01-31T14:54:44;5.40;99.90
10883;DHT22;5494;51.796;10.952;2023-01-31T14:57:27;5.40;99.90
10883;DHT22;5494;51.796;10.952;2023-01-31T15:00:00;5.40;99.90
10883;DHT22;5494;51.796;10.952;2023-01-31T15:02:52;5.40;99.90
10883;DHT22;5494;51.796;10.952;2023-01-31T15:05:39;5.40;99.90
10883;DHT22;5494;51.796;10.952;2023-01-31T15:08:44;5.40;99.90
10883;DHT22;5494;51.796;10.952;2023-01-31T15:11:35;5.50;99.90
10883;DHT22;5494;51.796;10.952;2023-01-31T15:14:29;5.50;99.90
10883;DHT22;5494;51.796;10.952;2023-01-31T15:17:07;5.60;99.90
10883;DHT22;5494;51.796;10.952;2023-01-31T15:20:11;5.60;99.90
10883;DHT22;5494;51.796;10.952;2023-01-31T15:22:44;5.60;99.90
10883;DHT22;5494;51.796;10.952;2023-01-31T15:25:32;5.60;99.90
10883;DHT22;5494;51.796;10.952;2023-01-31T15:28:03;5.60;99.90
10883;DHT22;5494;51.796;10.952;2023-01-31T15:30:34;5.60;99.90
10883;DHT22;5494;51.796;10.952;2023-01-31T15:33:14;5.60;99.90
10883;DHT22;5494;51.796;10.952;2023-01-31T15:35:52;5.60;99.90
10883;DHT22;5494;51.796;10.952;2023-01-31T15:38:27;5.60;99.90
10883;DHT22;5494;51.796;10.952;2023-01-31T15:41:15;5.60;99.90
10883;DHT22;5494;51.796;10.952;2023-01-31T15:43:46;5.50;99.90
10883;DHT22;5494;51.796;10.952;2023-01-31T15:46:21;5.50;99.90
10883;DHT22;5494;51.796;10.952;2023-01-31T15:48:55;5.50;99.90
10883;DHT22;5494;51.796;10.952;2023-01-31T15:51:25;5.50;99.90
10883;DHT22;5494;51.796;10.952;2023-01-31T15:54:00;5.50;99.90
10883;DHT22;5494;51.796;10.952;2023-01-31T15:56:33;5.60;99.90
10883;DHT22;5494;51.796;10.952;2023-01-31T15:59:10;5.70;99.90
10883;DHT22;5494;51.796;10.952;2023-01-31T16:01:46;5.90;99.90
10883;DHT22;5494;51.796;10.952;2023-01-31T16:04:15;6.00;99.90
10883;DHT22;5494;51.796;10.952;2023-01-31T16:06:45;6.10;99.90
10883;DHT22;5494;51.796;10.952;2023-01-31T16:09:24;6.20;99.90
10883;DHT22;5494;51.796;10.952;2023-01-31T16:11:54;6.20;99.90
10883;DHT22;5494;51.796;10.952;2023-01-31T16:14:23;6.20;99.90
10883;DHT22;5494;51.796;10.952;2023-01-31T16:16:54;6.20;99.90
10883;DHT22;5494;51.796;10.952;2023-01-31T16:19:26;6.20;99.90
10883;DHT22;5494;51.796;10.952;2023-01-31T16:21:57;6.20;99.90
10883;DHT22;5494;51.796;10.952;2023-01-31T16:24:26;6.10;99.90
10883;DHT22;5494;51.796;10.952;2023-01-31T16:26:57;6.10;99.90
10883;DHT22;5494;51.796;10.952;2023-01-31T16:29:36;6.10;99.90
10883;DHT22;5494;51.796;10.952;2023-01-31T16:32:15;6.10;99.90
10883;DHT22;5494;51.796;10.952;2023-01-31T16:34:55;6.20;99.90
10883;DHT22;5494;51.796;10.952;2023-01-31T16:37:35;6.20;99.90
10883;DHT22;5494;51.796;10.952;2023-01-31T16:40:07;6.20;99.90
10883;DHT22;5494;51.796;10.952;2023-01-31T16:42:46;6.20;99.90
10883;DHT22;5494;51.796;10.952;2023-01-31T16:45:27;6.10;99.90
10883;DHT22;5494;51.796;10.952;2023-01-31T16:48:13;6.20;99.90
10883;DHT22;5494;51.796;10.952;2023-01-31T16:50:47;6.10;99.90
10883;DHT22;5494;51.796;10.952;2023-01-31T16:53:23;7.30;99.90
10883;DHT22;5494;51.796;10.952;2023-01-31T16:56:16;6.10;99.90
10883;DHT22;5494;51.796;10.952;2023-01-31T16:58:50;7.20;99.90